createdAt,value
2022-09-17T00:12:37.870Z,93.90
2022-09-17T00:27:42.045Z,95.40
2022-09-17T00:42:46.442Z,95.50
2022-09-17T00:57:53.405Z,94.80
2022-09-17T01:13:08.669Z,94.90
2022-09-17T01:28:29.220Z,95.90
2022-09-17T01:43:37.196Z,94.70
2022-09-17T01:58:46.198Z,96.30
2022-09-17T02:13:59.865Z,96.60
2022-09-17T02:29:10.509Z,96.50
2022-09-17T02:44:23.470Z,96.00
2022-09-17T02:59:33.267Z,96.40
2022-09-17T03:14:37.583Z,95.40
2022-09-17T03:29:41.988Z,95.50
2022-09-17T03:44:46.380Z,96.50
2022-09-17T03:59:50.588Z,95.60
2022-09-17T04:14:54.875Z,96.10
2022-09-17T04:29:59.101Z,97.80
2022-09-17T04:45:03.415Z,98.20
2022-09-17T05:00:08.711Z,99.60
2022-09-17T05:15:13.289Z,99.30
2022-09-17T05:30:17.851Z,99.80
2022-09-17T05:45:22.536Z,99.80
2022-09-17T06:00:27.049Z,99.10
2022-09-17T06:15:32.036Z,99.90
2022-09-17T06:30:38.087Z,98.40
2022-09-17T06:45:43.268Z,97.60
2022-09-17T07:00:47.739Z,98.80
2022-09-17T07:15:55.968Z,98.10
2022-09-17T07:31:04.747Z,98.80
2022-09-17T07:46:14.471Z,97.10
2022-09-17T08:01:20.860Z,96.70
2022-09-17T08:16:25.952Z,95.70
2022-09-17T08:31:30.696Z,94.30
2022-09-17T08:46:42.044Z,95.00
2022-09-17T09:02:00.647Z,95.30
2022-09-17T09:17:09.783Z,95.80
2022-09-17T09:32:25.757Z,95.60
2022-09-17T09:47:51.350Z,94.10
2022-09-17T10:03:01.182Z,93.70
2022-09-17T10:18:17.606Z,91.60
2022-09-17T10:33:25.731Z,91.10
2022-09-17T10:48:33.997Z,90.20
2022-09-17T11:03:52.577Z,87.70
2022-09-17T11:19:06.090Z,82.70
2022-09-17T11:34:26.868Z,80.90
2022-09-17T11:49:36.879Z,78.10
2022-09-17T12:04:45.574Z,78.90
2022-09-17T12:19:54.206Z,77.20
2022-09-17T12:35:03.959Z,75.80
2022-09-17T12:50:20.281Z,67.90
2022-09-17T13:05:45.405Z,75.70
2022-09-17T13:21:03.765Z,69.50
2022-09-17T13:36:46.781Z,73.60
2022-09-17T13:51:55.269Z,68.60
2022-09-17T14:07:00.502Z,68.10
2022-09-17T14:22:15.464Z,57.50
2022-09-17T14:37:22.947Z,51.50
2022-09-17T14:52:30.415Z,44.60
2022-09-17T15:07:34.934Z,40.80
2022-09-17T15:22:42.636Z,38.60
2022-09-17T15:38:05.720Z,39.60
2022-09-17T15:53:23.824Z,42.50
2022-09-17T16:08:36.390Z,42.30
2022-09-17T16:23:40.902Z,42.60
2022-09-17T16:38:45.211Z,44.70
2022-09-17T16:53:50.073Z,47.40
2022-09-17T17:08:54.638Z,47.80
2022-09-17T17:23:59.092Z,49.40
2022-09-17T17:39:03.520Z,53.80
2022-09-17T17:54:08.324Z,56.30
2022-09-17T18:09:12.665Z,60.50
2022-09-17T18:24:17.057Z,61.20
2022-09-17T18:54:46.835Z,63.30
2022-09-17T19:09:51.249Z,63.80
2022-09-17T19:24:55.595Z,65.80
2022-09-17T19:39:59.844Z,65.00
2022-09-17T19:55:08.524Z,68.40
2022-09-17T20:10:15.240Z,67.80
2022-09-17T20:25:19.617Z,69.30
2022-09-17T20:40:23.993Z,68.90
2022-09-17T20:55:29.410Z,71.40
2022-09-17T21:10:33.781Z,71.70
2022-09-17T21:25:37.970Z,73.10
2022-09-17T21:40:44.058Z,72.10
2022-09-17T21:55:48.696Z,74.90
2022-09-17T22:10:53.040Z,74.10
2022-09-17T22:26:04.360Z,76.70
2022-09-17T22:41:10.670Z,76.70
2022-09-17T22:56:17.623Z,78.10
2022-09-17T23:11:23.812Z,79.00
2022-09-17T23:26:28.570Z,79.80
2022-09-17T23:41:34.615Z,79.60
2022-09-17T23:56:39.024Z,80.80
